Time;durP1;ratioP1;P1;durP2;ratioP2;P2;SDS_P1;SDS_P2;PMS_P1;PMS_P2;Temp;Humidity;BMP_temperature;BMP_pressure;BME280_temperature;BME280_humidity;BME280_pressure;Samples;Min_cycle;Max_cycle;Signal;HPM_P1;HPM_P2
2023/09/10 00:00:29;;;;;;;3.40;3.00;;;;;;;25.50;29.91;101009.45;103276;1297;68350;-86
2023/09/10 00:02:54;;;;;;;4.10;3.10;;;;;;;25.49;30.02;101011.77;103337;1297;69282;-87
2023/09/10 00:05:20;;;;;;;3.00;2.70;;;;;;;25.49;29.65;101014.19;103161;1297;69283;-86
2023/09/10 00:07:45;;;;;;;7.30;3.40;;;;;;;25.49;29.83;101012.17;103373;1297;69258;-86
2023/09/10 00:10:11;;;;;;;6.00;3.00;;;;;;;25.49;29.76;101015.59;103363;1297;69258;-86
2023/09/10 00:12:36;;;;;;;3.90;3.10;;;;;;;25.48;29.86;101013.83;103230;1297;69751;-86
2023/09/10 00:15:03;;;;;;;4.30;3.00;;;;;;;25.48;29.91;101020.21;103270;1297;69180;-86
2023/09/10 00:20:12;;;;;;;3.50;2.90;;;;;;;25.48;29.84;101025.80;103161;1299;69533;-86
2023/09/10 00:22:42;;;;;;;3.30;2.60;;;;;;;25.48;29.90;101023.68;103255;1300;69272;-86
2023/09/10 00:25:09;;;;;;;4.70;2.90;;;;;;;25.48;29.95;101023.23;103279;1302;69532;-87
2023/09/10 00:27:34;;;;;;;3.00;2.70;;;;;;;25.48;29.98;101020.80;103375;1302;69292;-86
2023/09/10 00:29:59;;;;;;;3.60;2.90;;;;;;;25.48;29.95;101019.55;103608;1300;69210;-87
2023/09/10 00:34:58;;;;;;;3.70;3.00;;;;;;;25.47;29.82;101019.24;103451;1297;72353;-86
2023/09/10 00:37:24;;;;;;;3.60;2.70;;;;;;;25.48;30.16;101023.27;103407;1297;69291;-86
2023/09/10 00:39:49;;;;;;;6.00;3.10;;;;;;;25.47;29.96;101025.59;103334;1299;69207;-86
2023/09/10 00:42:15;;;;;;;4.90;2.80;;;;;;;25.47;30.01;101028.16;103234;1300;69262;-86
2023/09/10 00:44:41;;;;;;;4.80;2.90;;;;;;;25.47;29.97;101025.59;103400;1297;69230;-87
2023/09/10 00:47:07;;;;;;;4.50;3.00;;;;;;;25.47;30.04;101028.58;103150;1297;69610;-86
2023/09/10 00:49:32;;;;;;;3.70;2.80;;;;;;;25.47;30.16;101029.30;103187;1297;69184;-86
2023/09/10 00:52:01;;;;;;;3.10;2.80;;;;;;;25.47;30.18;101033.27;103326;1299;69699;-86
2023/09/10 00:54:30;;;;;;;4.10;2.90;;;;;;;25.47;29.98;101034.20;103168;1298;67504;-86
2023/09/10 00:56:56;;;;;;;4.50;2.80;;;;;;;25.47;30.08;101038.17;103358;1297;73838;-87
2023/09/10 01:01:54;;;;;;;3.80;2.70;;;;;;;25.46;29.95;101034.20;103344;1295;69216;-86
2023/09/10 01:04:21;;;;;;;4.80;2.80;;;;;;;25.46;30.16;101039.92;103108;1303;69351;-86
2023/09/10 01:06:48;;;;;;;4.60;2.70;;;;;;;25.46;30.20;101038.89;103310;1302;69305;-86
2023/09/10 01:09:13;;;;;;;5.50;2.60;;;;;;;25.46;30.25;101038.89;103227;1302;69185;-86
2023/09/10 01:11:42;;;;;;;4.70;2.90;;;;;;;25.46;29.90;101041.13;103137;1299;69297;-87
2023/09/10 01:14:36;;;;;;;4.40;2.90;;;;;;;25.45;29.98;101039.36;103055;1305;69271;-86
2023/09/10 01:17:02;;;;;;;3.30;2.90;;;;;;;25.45;30.24;101041.44;102939;1299;69211;-86
2023/09/10 01:19:51;;;;;;;4.70;2.60;;;;;;;25.45;30.14;101044.02;103077;1298;67974;-86
2023/09/10 01:22:36;;;;;;;5.90;2.80;;;;;;;25.44;30.06;101039.12;103028;1304;73819;-86
2023/09/10 01:25:02;;;;;;;3.00;2.70;;;;;;;25.44;30.15;101031.96;103103;1302;69359;-86
2023/09/10 01:27:28;;;;;;;5.20;2.70;;;;;;;25.43;30.30;101032.05;103151;1302;69303;-86
2023/09/10 01:29:54;;;;;;;3.50;2.50;;;;;;;25.43;30.37;101030.92;103125;1303;69238;-86
2023/09/10 01:32:29;;;;;;;4.30;2.80;;;;;;;25.44;30.10;101028.20;103124;1302;69226;-86
2023/09/10 01:35:09;;;;;;;4.00;2.60;;;;;;;25.43;30.11;101030.93;103222;1305;73591;-86
2023/09/10 01:37:58;;;;;;;4.50;2.80;;;;;;;25.43;30.12;101032.27;103006;1306;69398;-86
2023/09/10 01:40:26;;;;;;;4.20;2.60;;;;;;;25.42;30.12;101031.90;103127;1302;69054;-87
2023/09/10 01:42:52;;;;;;;3.50;2.70;;;;;;;25.42;30.20;101030.20;103003;1303;69221;-86
2023/09/10 01:45:17;;;;;;;3.90;2.50;;;;;;;25.43;30.22;101030.98;103042;1299;69201;-86
2023/09/10 01:47:43;;;;;;;4.60;2.60;;;;;;;25.43;30.19;101031.55;103084;1305;69348;-86
2023/09/10 01:50:24;;;;;;;3.90;2.80;;;;;;;25.43;30.17;101028.71;102952;1299;69281;-92
2023/09/10 01:52:49;;;;;;;5.70;2.70;;;;;;;25.42;30.25;101033.30;102950;1304;69224;-86
2023/09/10 01:55:15;;;;;;;3.20;2.60;;;;;;;25.42;29.98;101033.23;103178;1302;69379;-86
2023/09/10 01:57:40;;;;;;;3.20;2.50;;;;;;;25.42;30.09;101034.27;103209;1305;70424;-86
2023/09/10 02:00:08;;;;;;;2.80;2.40;;;;;;;25.42;30.42;101033.70;103112;1313;69227;-86
2023/09/10 02:02:33;;;;;;;3.40;2.40;;;;;;;25.41;30.20;101039.27;103238;1299;69297;-87
2023/09/10 02:04:59;;;;;;;2.90;2.40;;;;;;;25.42;30.26;101040.31;103116;1299;70436;-86
2023/09/10 02:07:25;;;;;;;3.80;2.50;;;;;;;25.41;30.28;101043.23;103242;1299;69288;-86
2023/09/10 02:09:50;;;;;;;3.70;2.80;;;;;;;25.41;30.17;101045.37;103124;1313;69337;-86
2023/09/10 02:12:15;;;;;;;4.00;2.90;;;;;;;25.40;30.33;101047.41;103100;1299;69285;-86
2023/09/10 02:14:47;;;;;;;5.70;2.40;;;;;;;25.40;30.38;101045.41;103298;1302;69362;-86
2023/09/10 02:17:15;;;;;;;4.60;2.60;;;;;;;25.40;30.48;101048.46;103148;1299;69105;-92
2023/09/10 02:19:40;;;;;;;3.70;2.80;;;;;;;25.40;30.32;101046.34;103104;1302;69169;-86
2023/09/10 02:22:06;;;;;;;3.60;2.70;;;;;;;25.40;30.33;101046.39;103152;1302;69272;-86
2023/09/10 02:24:31;;;;;;;4.60;2.50;;;;;;;25.40;30.34;101052.17;103114;1300;69136;-86
2023/09/10 02:26:57;;;;;;;4.80;2.90;;;;;;;25.39;30.29;101048.72;103091;1299;69346;-86
2023/09/10 02:29:22;;;;;;;4.70;2.40;;;;;;;25.39;30.36;101050.38;103154;1298;69218;-86
2023/09/10 02:31:48;;;;;;;4.10;2.60;;;;;;;25.40;30.24;101052.53;103027;1303;69261;-86
2023/09/10 02:34:14;;;;;;;6.00;2.90;;;;;;;25.39;30.31;101049.77;103199;1302;69272;-86
2023/09/10 02:36:39;;;;;;;3.00;2.30;;;;;;;25.39;30.19;101050.33;103228;1302;69288;-86
2023/09/10 02:39:05;;;;;;;4.70;2.20;;;;;;;25.39;30.26;101050.02;103205;1305;69270;-86
2023/09/10 02:41:31;;;;;;;4.20;2.50;;;;;;;25.38;30.14;101055.38;103280;1302;69168;-86
2023/09/10 02:46:39;;;;;;;3.10;2.40;;;;;;;25.37;30.35;101052.40;103247;1301;69310;-86
2023/09/10 02:49:05;;;;;;;4.30;2.60;;;;;;;25.37;30.26;101052.61;103274;1297;69211;-86
2023/09/10 02:51:30;;;;;;;4.00;2.70;;;;;;;25.37;30.40;101057.20;103294;1297;69290;-86
2023/09/10 02:53:55;;;;;;;5.20;2.70;;;;;;;25.36;30.44;101055.34;103342;1302;69323;-86
2023/09/10 02:56:21;;;;;;;3.10;2.20;;;;;;;25.36;30.42;101056.21;103314;1299;69296;-86
2023/09/10 02:58:46;;;;;;;5.30;2.70;;;;;;;25.36;30.19;101050.09;103151;1297;69302;-86
2023/09/10 03:01:12;;;;;;;4.90;2.50;;;;;;;25.35;30.39;101053.80;103339;1302;69233;-86
2023/09/10 03:03:37;;;;;;;4.10;3.00;;;;;;;25.35;30.47;101056.33;103328;1302;69826;-86
2023/09/10 03:06:10;;;;;;;4.60;2.60;;;;;;;25.35;30.46;101060.19;103356;1302;69252;-86
2023/09/10 03:08:36;;;;;;;3.40;2.50;;;;;;;25.35;30.19;101060.86;103288;1297;68228;-86
2023/09/10 03:11:04;;;;;;;3.50;2.60;;;;;;;25.35;30.47;101064.52;103255;1302;69288;-92
2023/09/10 03:13:29;;;;;;;4.00;2.50;;;;;;;25.34;30.48;101068.13;103223;1298;73740;-86
2023/09/10 03:15:55;;;;;;;3.60;2.50;;;;;;;25.34;30.45;101072.83;103189;1297;69313;-86
2023/09/10 03:18:20;;;;;;;4.10;2.40;;;;;;;25.34;30.25;101069.84;103398;1301;69218;-86
2023/09/10 03:20:46;;;;;;;4.80;2.40;;;;;;;25.34;30.21;101070.35;103579;1301;69231;-86
2023/09/10 03:23:11;;;;;;;3.70;2.50;;;;;;;25.34;30.61;101068.08;103648;1302;69271;-87
2023/09/10 03:25:38;;;;;;;3.60;2.70;;;;;;;25.34;30.41;101071.74;104022;1299;69448;-87
2023/09/10 03:28:04;;;;;;;3.00;2.30;;;;;;;25.33;30.45;101072.10;104906;1299;67833;-87
2023/09/10 03:30:29;;;;;;;3.10;2.70;;;;;;;25.34;30.42;101073.30;103624;1299;69362;-86
2023/09/10 03:32:55;;;;;;;3.60;2.60;;;;;;;25.33;30.51;101071.13;103244;1299;69229;-86
2023/09/10 03:35:20;;;;;;;3.80;2.50;;;;;;;25.33;30.57;101080.49;103213;1301;69278;-86
2023/09/10 03:38:04;;;;;;;4.10;2.50;;;;;;;25.33;30.60;101077.05;103152;1298;69277;-91
2023/09/10 03:40:34;;;;;;;5.30;2.70;;;;;;;25.32;30.35;101080.20;102982;1302;312955;-86
2023/09/10 03:42:59;;;;;;;4.10;2.70;;;;;;;25.32;30.40;101081.48;103317;1299;69280;-86
2023/09/10 03:45:25;;;;;;;3.90;2.50;;;;;;;25.33;30.63;101087.20;103328;1301;67869;-86
2023/09/10 03:47:50;;;;;;;3.70;2.40;;;;;;;25.32;30.41;101083.30;103348;1300;66890;-86
2023/09/10 03:50:16;;;;;;;5.20;2.80;;;;;;;25.32;30.58;101084.23;103251;1299;69173;-87
2023/09/10 03:55:24;;;;;;;4.80;2.90;;;;;;;25.31;30.50;101085.41;103569;1301;73714;-86
2023/09/10 03:57:50;;;;;;;5.00;2.60;;;;;;;25.31;30.68;101085.41;103614;1297;69168;-86
2023/09/10 04:00:15;;;;;;;5.30;2.70;;;;;;;25.30;30.73;101090.05;103783;1297;70336;-86
2023/09/10 04:02:41;;;;;;;4.50;2.40;;;;;;;25.31;30.53;101081.71;103785;1303;70133;-86
2023/09/10 04:05:09;;;;;;;4.80;3.00;;;;;;;25.30;30.71;101090.31;103372;1299;67547;-86
2023/09/10 04:07:34;;;;;;;4.20;2.50;;;;;;;25.30;30.63;101093.41;103133;1302;69166;-86
2023/09/10 04:10:00;;;;;;;4.40;2.70;;;;;;;25.30;30.59;101094.23;103394;1297;69223;-86
2023/09/10 04:12:25;;;;;;;3.50;2.40;;;;;;;25.29;30.81;101100.41;103418;1301;69482;-86
2023/09/10 04:14:50;;;;;;;4.80;2.60;;;;;;;25.29;30.70;101098.09;103356;1296;67514;-86
2023/09/10 04:17:17;;;;;;;3.80;2.50;;;;;;;25.29;30.61;101098.81;103365;1297;69258;-86
2023/09/10 04:19:51;;;;;;;5.90;2.50;;;;;;;25.28;30.66;101096.60;103270;1297;69414;-91
2023/09/10 04:22:17;;;;;;;4.70;3.00;;;;;;;25.28;30.87;101102.53;103055;1297;69372;-86
2023/09/10 04:24:42;;;;;;;4.70;2.70;;;;;;;25.28;31.00;101106.09;103337;1299;69268;-86
2023/09/10 04:27:08;;;;;;;5.00;2.40;;;;;;;25.27;30.99;101103.73;103379;1297;69670;-85
2023/09/10 04:29:33;;;;;;;5.90;2.90;;;;;;;25.27;30.76;101101.58;103318;1296;69276;-86
2023/09/10 04:31:59;;;;;;;4.50;2.70;;;;;;;25.27;30.75;101104.81;103277;1303;69322;-86
2023/09/10 04:34:24;;;;;;;4.30;2.30;;;;;;;25.27;30.72;101109.08;103187;1298;69261;-86
2023/09/10 04:36:50;;;;;;;4.40;2.50;;;;;;;25.27;30.95;101111.98;103312;1296;69318;-86
2023/09/10 04:39:16;;;;;;;5.40;2.80;;;;;;;25.26;31.04;101110.39;103377;1297;69738;-86
2023/09/10 04:41:42;;;;;;;3.80;2.40;;;;;;;25.26;30.87;101118.27;103254;1296;69173;-86
2023/09/10 04:44:07;;;;;;;5.50;2.80;;;;;;;25.26;31.02;101114.77;103302;1296;69342;-86
2023/09/10 04:46:49;;;;;;;6.70;2.70;;;;;;;25.25;31.11;101116.95;103204;1297;69277;-92
2023/09/10 04:49:14;;;;;;;4.30;2.50;;;;;;;25.25;31.18;101115.60;103088;1297;68209;-86
2023/09/10 04:51:40;;;;;;;4.00;2.80;;;;;;;25.25;31.10;101115.19;103280;1297;69287;-86
2023/09/10 04:54:05;;;;;;;3.40;2.30;;;;;;;25.25;31.01;101116.58;103292;1302;69244;-86
2023/09/10 04:56:31;;;;;;;3.20;2.40;;;;;;;25.25;30.91;101114.78;103175;1297;70290;-86
2023/09/10 04:58:56;;;;;;;3.40;2.60;;;;;;;25.24;30.98;101113.45;103326;1297;69264;-86
2023/09/10 05:01:22;;;;;;;5.40;2.70;;;;;;;25.24;31.03;101112.27;103155;1296;69153;-86
2023/09/10 05:03:47;;;;;;;5.70;2.80;;;;;;;25.25;31.04;101112.30;103350;1297;69286;-86
2023/09/10 05:06:13;;;;;;;4.00;2.70;;;;;;;25.24;31.03;101115.66;103171;1297;70367;-86
2023/09/10 05:08:38;;;;;;;4.50;2.60;;;;;;;25.24;30.94;101117.77;103271;1301;69212;-86
2023/09/10 05:11:04;;;;;;;4.30;2.50;;;;;;;25.24;30.93;101114.62;103445;1301;69284;-86
2023/09/10 05:13:38;;;;;;;4.70;2.80;;;;;;;25.24;31.02;101117.05;103304;1297;69326;-92
2023/09/10 05:16:03;;;;;;;2.90;2.40;;;;;;;25.23;31.17;101121.80;103245;1297;69197;-86
2023/09/10 05:18:29;;;;;;;5.60;2.70;;;;;;;25.23;31.18;101121.79;103273;1297;69284;-86
2023/09/10 05:20:54;;;;;;;5.10;2.70;;;;;;;25.24;31.11;101116.59;103393;1300;69172;-86
2023/09/10 05:23:23;;;;;;;3.90;2.50;;;;;;;25.24;31.15;101118.89;103483;1302;69304;-86
2023/09/10 05:25:49;;;;;;;4.00;2.60;;;;;;;25.23;30.89;101119.37;103396;1297;69299;-87
2023/09/10 05:28:15;;;;;;;4.30;2.50;;;;;;;25.24;31.01;101122.30;103080;1296;69259;-86
2023/09/10 05:30:40;;;;;;;5.50;2.60;;;;;;;25.24;31.16;101121.01;103159;1302;69297;-86
2023/09/10 05:33:06;;;;;;;3.10;2.40;;;;;;;25.24;31.36;101122.19;103365;1300;69284;-86
2023/09/10 05:35:31;;;;;;;4.80;2.30;;;;;;;25.25;31.21;101124.77;103394;1297;69286;-86
2023/09/10 05:37:57;;;;;;;5.00;2.80;;;;;;;25.24;31.09;101130.55;103388;1301;69282;-86
2023/09/10 05:40:38;;;;;;;4.50;2.50;;;;;;;25.25;31.11;101129.45;103247;1302;69327;-91
2023/09/10 05:43:04;;;;;;;4.80;2.70;;;;;;;25.25;31.01;101128.64;103522;1297;69205;-87
2023/09/10 05:45:33;;;;;;;5.60;3.10;;;;;;;25.25;31.12;101131.73;103708;1302;69242;-86
2023/09/10 05:47:58;;;;;;;4.00;2.70;;;;;;;25.25;31.25;101133.05;103392;1297;69139;-86
2023/09/10 05:50:27;;;;;;;6.20;2.70;;;;;;;25.25;31.14;101138.63;103211;1303;69272;-86
2023/09/10 05:52:56;;;;;;;4.90;2.30;;;;;;;25.25;31.30;101140.16;103293;1301;73927;-86
2023/09/10 05:55:29;;;;;;;4.20;2.70;;;;;;;25.26;31.13;101141.91;103218;1301;69063;-92
2023/09/10 05:57:55;;;;;;;3.90;2.40;;;;;;;25.27;31.28;101145.14;103110;1297;69261;-86
2023/09/10 06:00:21;;;;;;;4.70;2.50;;;;;;;25.28;31.21;101146.98;103278;1301;67270;-86
2023/09/10 06:02:48;;;;;;;3.80;2.80;;;;;;;25.29;31.12;101152.90;103377;1297;69202;-86
2023/09/10 06:05:13;;;;;;;4.80;2.60;;;;;;;25.28;31.05;101147.74;103376;1297;69255;-86
2023/09/10 06:07:39;;;;;;;3.20;2.30;;;;;;;25.28;31.24;101151.00;103327;1302;69223;-87
2023/09/10 06:10:06;;;;;;;3.90;2.60;;;;;;;25.29;31.17;101153.02;103256;1301;69183;-86
2023/09/10 06:12:36;;;;;;;6.20;2.70;;;;;;;25.29;31.23;101155.48;103362;1297;69303;-86
2023/09/10 06:15:04;;;;;;;3.80;2.60;;;;;;;25.29;31.17;101158.87;103307;1301;82611;-86
2023/09/10 06:17:29;;;;;;;3.60;2.60;;;;;;;25.29;31.21;101164.08;103188;1299;69061;-86
2023/09/10 06:19:54;;;;;;;3.70;2.60;;;;;;;25.29;31.47;101166.50;103367;1297;69280;-86
2023/09/10 06:22:22;;;;;;;4.80;2.70;;;;;;;25.29;31.30;101159.55;103180;1299;69305;-92
2023/09/10 06:24:48;;;;;;;6.30;2.70;;;;;;;25.29;30.96;101153.72;103216;1302;69232;-86
2023/09/10 06:27:13;;;;;;;6.60;3.00;;;;;;;25.29;31.21;101155.62;103332;1302;69140;-86
2023/09/10 06:29:39;;;;;;;6.20;2.70;;;;;;;25.29;31.16;101157.63;103272;1299;69334;-86
2023/09/10 06:32:05;;;;;;;5.30;2.60;;;;;;;25.30;31.28;101159.73;103333;1302;69455;-86
2023/09/10 06:34:30;;;;;;;3.60;2.30;;;;;;;25.31;31.32;101161.95;103354;1297;73200;-86
2023/09/10 06:36:56;;;;;;;6.20;2.40;;;;;;;25.31;31.24;101169.06;103107;1297;68492;-86
2023/09/10 06:39:25;;;;;;;5.40;2.50;;;;;;;25.31;31.37;101170.59;103376;1300;69253;-86
2023/09/10 06:41:52;;;;;;;3.80;2.50;;;;;;;25.31;31.37;101170.45;103229;1300;69270;-86
2023/09/10 06:44:18;;;;;;;6.10;2.70;;;;;;;25.31;31.34;101170.91;103205;1297;69207;-86
2023/09/10 06:46:43;;;;;;;4.70;2.40;;;;;;;25.32;31.23;101174.24;103344;1303;69353;-86
2023/09/10 06:49:17;;;;;;;4.10;2.40;;;;;;;25.33;31.35;101174.30;103259;1297;69306;-91
2023/09/10 06:51:42;;;;;;;3.60;2.40;;;;;;;25.33;31.30;101172.09;103285;1298;69279;-86
2023/09/10 06:54:08;;;;;;;4.50;2.90;;;;;;;25.33;31.43;101173.07;103383;1297;69243;-86
2023/09/10 06:56:33;;;;;;;4.70;2.70;;;;;;;25.34;31.35;101177.13;103386;1301;69214;-87
2023/09/10 06:58:59;;;;;;;5.40;2.90;;;;;;;25.34;31.45;101175.32;103421;1302;69166;-86
2023/09/10 07:01:24;;;;;;;5.50;2.50;;;;;;;25.34;31.29;101171.98;103435;1297;69277;-87
2023/09/10 07:03:51;;;;;;;5.10;2.40;;;;;;;25.35;31.43;101170.48;103172;1297;69260;-86
2023/09/10 07:06:17;;;;;;;4.10;2.50;;;;;;;25.35;31.31;101168.58;103351;1302;69048;-86
2023/09/10 07:08:42;;;;;;;4.80;2.50;;;;;;;25.36;31.56;101169.54;103327;1298;69309;-86
2023/09/10 07:11:08;;;;;;;5.00;2.50;;;;;;;25.38;31.57;101164.12;103356;1297;70809;-86
2023/09/10 07:13:36;;;;;;;4.30;2.50;;;;;;;25.39;31.47;101166.90;103542;1301;69285;-86
2023/09/10 07:18:40;;;;;;;3.60;2.50;;;;;;;25.40;31.60;101168.27;103325;1299;69697;-86
2023/09/10 07:21:06;;;;;;;5.10;2.80;;;;;;;25.40;31.74;101163.39;103489;1300;69301;-87
2023/09/10 07:23:31;;;;;;;4.20;2.70;;;;;;;25.41;31.59;101163.12;103306;1299;69317;-86
2023/09/10 07:25:57;;;;;;;5.60;2.40;;;;;;;25.42;31.55;101165.23;103212;1300;69259;-86
2023/09/10 07:28:22;;;;;;;4.50;2.60;;;;;;;25.43;31.47;101159.20;103383;1299;69403;-87
2023/09/10 07:30:48;;;;;;;4.80;2.50;;;;;;;25.44;31.79;101164.77;103238;1300;69278;-87
2023/09/10 07:33:13;;;;;;;4.80;2.40;;;;;;;25.45;31.68;101163.17;103567;1299;69277;-86
2023/09/10 07:35:39;;;;;;;5.30;2.70;;;;;;;25.45;31.63;101161.46;104372;1300;69223;-87
2023/09/10 07:38:04;;;;;;;3.70;2.60;;;;;;;25.46;31.61;101157.53;103593;1300;69211;-86
2023/09/10 07:40:30;;;;;;;4.30;2.50;;;;;;;25.47;31.72;101161.45;103391;1299;69281;-86
2023/09/10 07:45:29;;;;;;;4.80;2.50;;;;;;;25.48;31.79;101162.79;103425;1297;70009;-86
2023/09/10 07:47:56;;;;;;;3.30;2.50;;;;;;;25.49;31.80;101165.10;103382;1297;69352;-86
2023/09/10 07:50:22;;;;;;;4.50;2.60;;;;;;;25.50;31.69;101161.64;103426;1297;69268;-86
2023/09/10 07:52:48;;;;;;;7.30;3.00;;;;;;;25.50;31.89;101156.33;103327;1299;69669;-86
2023/09/10 07:55:13;;;;;;;6.50;2.80;;;;;;;25.50;32.17;101160.56;103380;1296;69286;-87
2023/09/10 07:57:39;;;;;;;4.20;2.60;;;;;;;25.49;32.16;101162.61;103298;1297;69206;-86
2023/09/10 08:00:06;;;;;;;10.00;2.90;;;;;;;25.47;32.46;101163.10;103506;1297;69247;-87
2023/09/10 08:02:34;;;;;;;8.20;3.10;;;;;;;25.47;32.68;101161.66;103508;1299;69598;-86
2023/09/10 08:05:00;;;;;;;7.70;2.70;;;;;;;25.47;32.51;101161.52;103492;1296;73663;-87
2023/09/10 08:07:26;;;;;;;12.40;3.00;;;;;;;25.47;32.49;101159.96;103336;1297;70377;-87
2023/09/10 08:10:03;;;;;;;9.60;2.90;;;;;;;25.47;32.91;101156.30;103308;1297;69165;-92
2023/09/10 08:12:29;;;;;;;7.00;3.10;;;;;;;25.46;32.84;101160.17;103339;1296;69168;-87
2023/09/10 08:14:55;;;;;;;8.00;3.00;;;;;;;25.45;32.84;101157.96;103481;1297;68565;-87
2023/09/10 08:17:21;;;;;;;17.60;11.10;;;;;;;25.45;32.99;101154.21;103444;1297;69433;-87
2023/09/10 08:19:46;;;;;;;9.40;5.30;;;;;;;25.44;33.17;101154.01;103377;1297;69098;-87
2023/09/10 08:22:12;;;;;;;8.10;3.60;;;;;;;25.44;33.41;101152.88;103540;1297;70463;-88
2023/09/10 08:24:37;;;;;;;6.30;3.00;;;;;;;25.42;33.49;101150.23;103245;1297;69054;-87
2023/09/10 08:27:03;;;;;;;7.60;3.10;;;;;;;25.40;33.48;101156.16;103441;1297;69448;-86
2023/09/10 08:29:29;;;;;;;8.20;3.00;;;;;;;25.39;33.45;101154.02;103453;1300;69172;-86
2023/09/10 08:31:55;;;;;;;9.80;3.20;;;;;;;25.39;33.68;101150.88;103075;1300;69745;-86
2023/09/10 08:34:21;;;;;;;6.20;2.80;;;;;;;25.37;33.96;101153.84;103375;1298;69287;-86
2023/09/10 08:36:56;;;;;;;6.90;2.80;;;;;;;25.35;33.69;101144.20;103348;1299;69353;-92
2023/09/10 08:39:22;;;;;;;9.80;3.90;;;;;;;25.36;34.02;101148.98;103151;1299;73706;-85
2023/09/10 08:42:16;;;;;;;10.60;3.30;;;;;;;25.38;33.93;101145.46;103189;1300;69367;-84
2023/09/10 08:44:42;;;;;;;7.00;3.50;;;;;;;25.38;33.87;101148.72;103253;1297;69092;-85
2023/09/10 08:47:08;;;;;;;7.10;3.70;;;;;;;25.39;33.81;101145.61;103104;1300;69280;-85
2023/09/10 08:49:34;;;;;;;6.10;3.60;;;;;;;25.41;33.81;101140.96;103243;1300;67720;-84
2023/09/10 08:52:00;;;;;;;8.70;3.30;;;;;;;25.41;34.01;101137.77;103177;1300;69145;-85
2023/09/10 08:54:25;;;;;;;10.70;3.10;;;;;;;25.41;33.76;101138.33;103266;1299;67952;-88
2023/09/10 08:59:46;;;;;;;10.00;2.90;;;;;;;25.40;34.06;101141.29;104601;1292;557546;-93
2023/09/10 09:02:11;;;;;;;11.10;3.00;;;;;;;25.40;34.20;101138.19;103842;1297;67397;-87
2023/09/10 09:04:37;;;;;;;7.80;2.80;;;;;;;25.40;34.09;101135.81;103850;1299;67364;-88
2023/09/10 09:07:03;;;;;;;9.70;3.40;;;;;;;25.41;34.03;101133.65;103810;1302;69271;-88
2023/09/10 09:15:23;;;;;;;5.30;2.70;;;;;;;25.45;33.94;101137.61;83134;1313;66941;31
2023/09/10 09:17:50;;;;;;;9.80;3.00;;;;;;;25.46;33.78;101135.54;103870;1296;73629;-88
2023/09/10 09:20:17;;;;;;;5.30;2.90;;;;;;;25.48;33.87;101133.43;103726;1298;69249;-88
2023/09/10 09:22:44;;;;;;;6.40;2.90;;;;;;;25.49;33.76;101138.31;103865;1296;69198;-87
2023/09/10 09:25:22;;;;;;;5.20;3.10;;;;;;;25.51;33.60;101134.54;103343;1297;534318;-93
2023/09/10 09:27:55;;;;;;;4.60;2.90;;;;;;;25.53;33.67;101138.13;103558;1296;532439;-92
2023/09/10 09:30:21;;;;;;;6.60;2.80;;;;;;;25.54;33.85;101136.36;103608;1297;73851;-88
2023/09/10 09:32:46;;;;;;;4.90;2.90;;;;;;;25.55;33.83;101136.65;103789;1302;67672;-88
2023/09/10 09:35:13;;;;;;;5.60;2.70;;;;;;;25.56;33.70;101135.97;103537;1305;69226;-88
2023/09/10 09:37:39;;;;;;;5.40;3.00;;;;;;;25.58;33.59;101128.80;103820;1296;69434;-88
2023/09/10 09:40:09;;;;;;;6.20;2.90;;;;;;;25.60;33.45;101128.89;103626;1300;69287;-88
2023/09/10 09:45:20;;;;;;;4.60;2.80;;;;;;;25.61;33.59;101125.98;82860;1290;554814;-84
2023/09/10 09:47:47;;;;;;;8.60;2.90;;;;;;;25.63;33.61;101123.30;103929;1296;67312;-88
2023/09/10 09:50:16;;;;;;;4.90;2.70;;;;;;;25.64;33.65;101125.85;104234;1292;553068;-93
2023/09/10 09:52:42;;;;;;;4.60;2.70;;;;;;;25.64;33.51;101123.89;103639;1305;67022;-88
2023/09/10 09:55:08;;;;;;;7.70;2.90;;;;;;;25.65;33.42;101120.02;103689;1300;69398;-88
2023/09/10 09:57:46;;;;;;;5.10;2.90;;;;;;;25.66;33.70;101122.64;103677;1290;69149;31
2023/09/10 10:00:12;;;;;;;4.10;2.50;;;;;;;25.66;33.58;101114.19;103521;1297;69082;-88
2023/09/10 10:02:38;;;;;;;5.80;2.60;;;;;;;25.66;33.46;101115.37;103699;1297;69130;-88
2023/09/10 10:05:04;;;;;;;6.60;2.70;;;;;;;25.67;33.38;101115.83;103678;1297;69282;-88
2023/09/10 10:07:30;;;;;;;4.10;2.80;;;;;;;25.66;33.41;101118.93;103533;1297;69392;-88
2023/09/10 10:09:59;;;;;;;4.80;2.70;;;;;;;25.67;33.53;101117.38;104031;1296;69284;-89
2023/09/10 10:12:25;;;;;;;6.30;3.10;;;;;;;25.67;33.69;101119.11;103557;1301;69227;-89
2023/09/10 10:14:50;;;;;;;4.80;2.70;;;;;;;25.68;33.50;101113.81;103510;1301;69280;-88
2023/09/10 10:17:16;;;;;;;3.90;2.40;;;;;;;25.68;33.49;101111.96;103431;1297;69149;-88
2023/09/10 10:19:42;;;;;;;5.70;2.80;;;;;;;25.68;33.46;101110.30;103562;1297;69376;-88
2023/09/10 10:22:07;;;;;;;5.00;2.70;;;;;;;25.69;33.47;101108.02;103613;1302;69742;-88
2023/09/10 10:24:33;;;;;;;4.50;2.90;;;;;;;25.70;33.57;101108.12;103927;1297;69265;-88
2023/09/10 10:26:59;;;;;;;6.20;3.00;;;;;;;25.71;33.43;101109.61;103468;1299;69284;-89
2023/09/10 10:29:24;;;;;;;5.60;3.00;;;;;;;25.70;33.39;101109.92;103537;1299;69220;-88
2023/09/10 10:32:02;;;;;;;4.40;2.50;;;;;;;25.70;33.43;101109.83;103587;1302;69204;-88
2023/09/10 10:34:30;;;;;;;4.80;3.00;;;;;;;25.71;33.19;101109.46;103566;1299;69223;-88
2023/09/10 10:37:18;;;;;;;6.70;2.90;;;;;;;25.70;33.37;101110.09;103451;1299;69389;-89
2023/09/10 10:40:05;;;;;;;4.40;2.70;;;;;;;25.70;33.30;101114.45;103620;1299;69237;-89
2023/09/10 10:42:37;;;;;;;5.20;2.80;;;;;;;25.70;33.31;101112.51;103392;1299;73850;-88
2023/09/10 10:45:05;;;;;;;4.10;2.70;;;;;;;25.70;33.51;101113.52;103572;1300;69169;-88
2023/09/10 10:47:40;;;;;;;4.30;2.80;;;;;;;25.71;33.52;101111.56;103415;1305;69313;-88
2023/09/10 10:50:09;;;;;;;5.90;2.70;;;;;;;25.70;33.21;101107.96;103546;1299;67443;-88
2023/09/10 10:52:35;;;;;;;6.00;2.50;;;;;;;25.70;33.44;101105.50;103611;1302;69105;-88
2023/09/10 10:55:01;;;;;;;4.50;2.60;;;;;;;25.69;33.48;101103.59;104132;1299;69084;-89
2023/09/10 10:57:27;;;;;;;4.90;2.90;;;;;;;25.70;33.38;101098.73;105061;1299;67928;-88
2023/09/10 10:59:52;;;;;;;4.50;2.60;;;;;;;25.70;33.44;101097.71;103591;1303;69284;-88
2023/09/10 11:02:22;;;;;;;5.60;2.90;;;;;;;25.70;33.31;101096.38;103558;1305;69967;-88
2023/09/10 11:04:54;;;;;;;4.20;2.90;;;;;;;25.71;33.24;101092.30;103548;1299;73630;-88
2023/09/10 11:07:20;;;;;;;4.20;2.60;;;;;;;25.71;33.34;101092.19;104017;1302;69170;-89
2023/09/10 11:09:47;;;;;;;4.60;2.90;;;;;;;25.71;33.45;101088.11;104013;1305;66654;-88
2023/09/10 11:12:19;;;;;;;4.30;2.70;;;;;;;25.71;33.63;101086.41;103385;1305;69208;-92
2023/09/10 11:15:00;;;;;;;6.20;2.70;;;;;;;25.71;33.36;101081.73;103421;1300;69141;-89
2023/09/10 11:17:31;;;;;;;5.50;2.90;;;;;;;25.71;33.53;101079.55;103581;1299;73442;-88
2023/09/10 11:19:58;;;;;;;4.30;2.40;;;;;;;25.72;33.50;101077.81;103745;1298;69997;-88
2023/09/10 11:22:23;;;;;;;4.70;2.70;;;;;;;25.72;33.44;101063.16;103700;1297;69232;-88
2023/09/10 11:25:05;;;;;;;4.90;2.70;;;;;;;25.72;33.40;101067.95;103645;1297;69162;-88
2023/09/10 11:27:33;;;;;;;5.10;2.60;;;;;;;25.73;33.41;101072.13;103751;1297;69144;-88
2023/09/10 11:32:46;;;;;;;3.70;2.50;;;;;;;25.73;33.20;101060.38;103622;1298;69163;-87
2023/09/10 11:35:18;;;;;;;4.00;2.80;;;;;;;25.73;33.24;101055.92;103826;1298;67402;-88
2023/09/10 11:37:51;;;;;;;4.90;2.70;;;;;;;25.74;33.16;101053.30;103607;1299;69196;-88
2023/09/10 11:40:18;;;;;;;5.30;2.60;;;;;;;25.75;33.21;101049.27;103889;1293;69097;-87
2023/09/10 11:42:44;;;;;;;3.60;2.50;;;;;;;25.75;33.20;101044.63;103933;1297;69141;-87
2023/09/10 11:45:12;;;;;;;4.90;2.60;;;;;;;25.76;33.27;101040.59;103545;1297;69292;-91
2023/09/10 11:47:42;;;;;;;4.60;3.20;;;;;;;25.75;33.09;101037.72;103502;1297;69187;-87
2023/09/10 11:50:08;;;;;;;5.90;2.70;;;;;;;25.75;33.10;101033.29;103576;1299;66988;-87